Time;durP1;ratioP1;P1;durP2;ratioP2;P2;SDS_P1;SDS_P2;PMS_P1;PMS_P2;Temp;Humidity;BMP_temperature;BMP_pressure;BME280_temperature;BME280_humidity;BME280_pressure;Samples;Min_cycle;Max_cycle;Signal;HPM_P1;HPM_P2
2023/03/20 00:01:23;;;;;;;4.77;4.37;;;;;;;11.73;83.51;101013.78;4880742;29;20467;-72
2023/03/20 00:03:52;;;;;;;8.67;5.03;;;;;;;11.74;83.87;101020.06;4885109;29;20459;-75
2023/03/20 00:06:24;;;;;;;7.03;4.27;;;;;;;11.80;83.40;101012.97;4905401;29;20494;-75
2023/03/20 00:08:56;;;;;;;5.63;4.90;;;;;;;11.74;83.48;101015.47;4901371;29;20512;-74
2023/03/20 00:11:30;;;;;;;5.50;3.93;;;;;;;11.66;83.97;101020.22;4881140;29;20521;-72
2023/03/20 00:14:01;;;;;;;5.93;4.40;;;;;;;11.61;84.56;101026.28;4888158;29;20461;-74
2023/03/20 00:16:32;;;;;;;11.93;5.27;;;;;;;11.62;84.30;101022.50;4875923;29;20460;-74
2023/03/20 00:19:02;;;;;;;5.60;4.97;;;;;;;11.47;84.84;101024.56;4881836;29;20464;-74
2023/03/20 00:22:02;;;;;;;4.50;3.70;;;;;;;11.44;85.66;101019.53;4880718;29;20445;-73
2023/03/20 00:24:31;;;;;;;6.50;4.30;;;;;;;11.48;85.11;101018.09;4889043;29;20556;-73
2023/03/20 00:27:01;;;;;;;5.40;4.80;;;;;;;11.42;85.12;101016.22;4886520;29;20425;-73
2023/03/20 00:29:33;;;;;;;5.70;4.60;;;;;;;11.34;85.72;101019.94;4886933;29;20488;-74
2023/03/20 00:32:03;;;;;;;8.10;5.10;;;;;;;11.26;85.79;101022.84;4902124;29;20445;-73
2023/03/20 00:34:32;;;;;;;10.30;4.97;;;;;;;10.99;86.92;101018.34;4905193;29;20555;-74
2023/03/20 00:37:02;;;;;;;5.20;4.70;;;;;;;10.74;88.35;101012.63;4896112;29;20960;-74
2023/03/20 00:39:31;;;;;;;7.63;5.73;;;;;;;10.58;89.30;101012.94;4902049;29;20410;-75
2023/03/20 00:42:04;;;;;;;4.77;4.37;;;;;;;10.59;90.07;101011.91;4902669;29;20550;-74
2023/03/20 00:44:37;;;;;;;5.97;5.40;;;;;;;10.42;90.83;101010.53;4903617;29;20519;-74
2023/03/20 00:47:18;;;;;;;5.77;4.87;;;;;;;10.34;92.05;100999.88;4884108;29;20470;-74
2023/03/20 00:49:49;;;;;;;5.50;5.00;;;;;;;10.18;92.59;101001.03;4879054;29;20504;-74
2023/03/20 00:52:21;;;;;;;5.50;5.00;;;;;;;10.30;93.07;100999.47;4896658;29;20456;-72
2023/03/20 00:54:52;;;;;;;6.03;5.50;;;;;;;10.34;92.69;101005.31;4889270;29;21045;-74
2023/03/20 00:57:25;;;;;;;7.43;5.20;;;;;;;10.45;92.13;100996.63;4886159;29;20503;-73
2023/03/20 00:59:59;;;;;;;6.00;5.40;;;;;;;10.17;92.62;100996.63;4877400;29;20569;-74
2023/03/20 01:02:29;;;;;;;10.10;5.93;;;;;;;10.04;93.92;101000.06;4883152;29;20952;-72
2023/03/20 01:05:02;;;;;;;7.60;5.33;;;;;;;10.04;95.07;100996.50;4880292;29;20441;-74
2023/03/20 01:07:32;;;;;;;6.70;5.20;;;;;;;10.05;95.30;100998.19;4889101;29;20551;-73
2023/03/20 01:10:04;;;;;;;7.27;5.77;;;;;;;10.03;94.69;101001.09;4883393;29;20452;-74
2023/03/20 01:12:33;;;;;;;6.93;5.90;;;;;;;9.87;95.64;101000.53;4884395;29;20428;-73
2023/03/20 01:15:02;;;;;;;7.50;4.80;;;;;;;9.91;96.27;101005.38;4888772;29;20491;-74
2023/03/20 01:17:31;;;;;;;7.17;6.17;;;;;;;9.96;95.97;101007.47;4891058;29;20255;-74
2023/03/20 01:20:00;;;;;;;7.75;5.60;;;;;;;9.83;96.05;101001.94;4883397;29;20556;-73
2023/03/20 01:22:29;;;;;;;7.28;5.10;;;;;;;9.68;97.08;101010.16;4883582;29;20204;-72
2023/03/20 01:25:59;;;;;;;7.80;5.90;;;;;;;9.53;98.21;101009.38;4891276;29;20195;-75
2023/03/20 01:28:31;;;;;;;5.90;4.80;;;;;;;9.59;99.19;101005.88;4891252;29;20575;-73
2023/03/20 01:31:00;;;;;;;6.17;4.70;;;;;;;9.68;98.67;101003.91;4899842;29;20207;-74
2023/03/20 01:33:30;;;;;;;6.28;5.45;;;;;;;9.74;98.15;101006.66;4885059;29;20455;-73
2023/03/20 01:35:59;;;;;;;7.78;5.97;;;;;;;9.73;98.42;101013.09;4882703;29;20287;-74
2023/03/20 01:38:28;;;;;;;7.15;6.10;;;;;;;9.72;98.44;101010.59;4903605;29;20232;-73
2023/03/20 01:41:04;;;;;;;7.80;5.78;;;;;;;9.53;99.16;101002.09;4893157;29;20199;-73
2023/03/20 01:43:36;;;;;;;7.15;5.88;;;;;;;9.88;98.88;101005.72;4891260;29;20231;-73
2023/03/20 01:46:17;;;;;;;6.70;5.80;;;;;;;9.74;98.95;101005.81;4924822;29;20219;-73
2023/03/20 01:49:08;;;;;;;7.70;6.93;;;;;;;9.77;99.51;101003.56;4886814;29;21012;-74
2023/03/20 01:51:37;;;;;;;11.23;6.47;;;;;;;9.85;99.85;101008.84;4908692;29;20223;-74
2023/03/20 01:54:16;;;;;;;9.80;6.80;;;;;;;10.15;97.90;101003.25;4891918;29;20457;-74
2023/03/20 01:56:57;;;;;;;7.70;6.18;;;;;;;10.40;95.47;101007.22;4888220;29;20212;-74
2023/03/20 01:59:33;;;;;;;7.13;6.30;;;;;;;10.39;95.33;101013.66;4890268;29;20578;-74
2023/03/20 02:02:04;;;;;;;11.13;6.00;;;;;;;10.48;94.62;101015.16;4886820;29;20472;-73
2023/03/20 02:04:36;;;;;;;8.65;6.43;;;;;;;10.50;94.09;101023.94;4883078;29;20554;-73
2023/03/20 02:07:13;;;;;;;7.07;6.15;;;;;;;10.41;94.46;101019.69;4888718;29;20268;-74
2023/03/20 02:09:48;;;;;;;6.60;6.00;;;;;;;10.41;95.12;101023.22;4886190;29;20204;-74
2023/03/20 02:12:23;;;;;;;9.88;6.30;;;;;;;10.44;94.69;101027.44;4888270;29;20496;-73
2023/03/20 02:14:55;;;;;;;6.23;5.63;;;;;;;10.41;94.46;101016.97;4891921;29;20212;-74
2023/03/20 02:17:43;;;;;;;8.48;7.35;;;;;;;10.31;94.83;101022.75;4887583;29;20495;-75
2023/03/20 02:20:27;;;;;;;6.67;6.10;;;;;;;10.29;95.29;101014.00;4885303;29;20231;-73
2023/03/20 02:23:37;;;;;;;6.83;5.43;;;;;;;10.53;94.29;101015.41;4888118;29;20462;-73
2023/03/20 02:26:35;;;;;;;7.03;6.30;;;;;;;10.36;94.50;101005.94;4892646;29;20564;-73
2023/03/20 02:29:57;;;;;;;8.10;6.03;;;;;;;10.40;94.41;101016.19;4882616;29;20236;-73
2023/03/20 02:33:09;;;;;;;10.67;7.10;;;;;;;10.36;94.95;101008.66;4820237;29;20840;-74
2023/03/20 02:36:16;;;;;;;7.47;5.70;;;;;;;10.31;94.92;101016.53;4798606;29;20829;-75
2023/03/20 02:39:20;;;;;;;8.60;7.13;;;;;;;10.19;95.63;101018.09;4888362;29;20487;-74
2023/03/20 02:41:56;;;;;;;6.78;6.07;;;;;;;10.26;96.03;101010.88;4881993;29;20477;-73
2023/03/20 02:44:33;;;;;;;6.97;6.28;;;;;;;10.32;95.41;101012.75;4881514;29;20298;-74
2023/03/20 02:47:08;;;;;;;10.60;7.00;;;;;;;10.40;95.00;101008.06;4889334;29;20224;-74
2023/03/20 02:49:54;;;;;;;7.33;6.50;;;;;;;10.41;95.36;101022.41;4883402;29;20513;-74
2023/03/20 02:52:36;;;;;;;7.30;6.60;;;;;;;10.45;94.67;101015.59;4886012;29;20459;-76
2023/03/20 02:55:16;;;;;;;8.47;6.13;;;;;;;10.43;94.93;101012.22;4884293;29;20916;-75
2023/03/20 02:57:53;;;;;;;8.93;6.10;;;;;;;10.46;94.85;101019.94;4893064;29;20480;-75
2023/03/20 03:00:29;;;;;;;8.32;6.32;;;;;;;10.52;94.19;101019.16;4892257;29;20888;-75
2023/03/20 03:03:06;;;;;;;8.40;7.30;;;;;;;10.43;95.17;101020.34;4881438;29;20209;-73
2023/03/20 03:05:40;;;;;;;6.80;6.07;;;;;;;10.43;94.90;101014.94;4888119;29;20483;-72
2023/03/20 03:08:13;;;;;;;7.67;6.27;;;;;;;10.50;94.97;101005.00;4885369;29;20500;-74
2023/03/20 03:10:49;;;;;;;7.30;6.10;;;;;;;10.46;94.90;101019.94;4886986;29;20591;-75
2023/03/20 03:13:21;;;;;;;7.47;6.77;;;;;;;10.46;95.05;101014.53;4890017;29;20564;-74
2023/03/20 03:15:54;;;;;;;9.60;6.70;;;;;;;10.57;94.55;101015.84;4880148;29;21004;-75
2023/03/20 03:18:25;;;;;;;7.67;6.47;;;;;;;10.70;93.31;101016.75;4880933;29;20484;-73
2023/03/20 03:20:59;;;;;;;8.10;6.97;;;;;;;10.70;93.30;101022.16;4883566;29;20904;-74
2023/03/20 03:24:23;;;;;;;10.43;6.63;;;;;;;10.64;93.50;101022.97;4884684;29;20456;-76
2023/03/20 03:27:18;;;;;;;6.20;5.60;;;;;;;10.54;94.27;101021.66;4881256;29;20231;-74
2023/03/20 03:29:52;;;;;;;7.43;6.70;;;;;;;10.47;94.74;101027.03;4912121;29;20245;-75
2023/03/20 03:32:34;;;;;;;9.95;7.47;;;;;;;10.40;95.44;101034.28;4909592;29;20468;-74
2023/03/20 03:35:53;;;;;;;10.67;7.37;;;;;;;10.46;95.09;101033.47;4885023;29;20222;-75
2023/03/20 03:38:30;;;;;;;10.40;7.00;;;;;;;10.39;95.36;101030.72;4880254;29;20476;-75
2023/03/20 03:41:18;;;;;;;10.33;7.53;;;;;;;10.38;95.74;101029.06;4884701;29;20503;-75
2023/03/20 03:43:55;;;;;;;10.47;8.40;;;;;;;10.38;95.31;101028.22;4878971;29;20460;-76
2023/03/20 03:46:32;;;;;;;11.32;7.28;;;;;;;10.36;95.45;101022.97;4880729;29;20465;-75
2023/03/20 03:49:05;;;;;;;8.80;8.10;;;;;;;10.31;95.87;101030.06;4883902;29;20796;-75
2023/03/20 03:51:38;;;;;;;8.68;7.75;;;;;;;10.25;96.03;101028.13;4897449;29;20571;-75
2023/03/20 03:54:15;;;;;;;9.48;7.35;;;;;;;10.23;96.55;101027.47;4880521;29;20215;-73
2023/03/20 03:56:53;;;;;;;9.25;7.85;;;;;;;10.21;96.82;101032.25;4882486;29;20202;-74
2023/03/20 03:59:28;;;;;;;9.33;8.23;;;;;;;10.22;96.88;101033.91;4883661;29;20247;-74
2023/03/20 04:02:02;;;;;;;9.40;8.43;;;;;;;10.21;96.65;101022.28;4884713;29;20455;-74
2023/03/20 04:04:34;;;;;;;9.10;7.40;;;;;;;10.13;97.11;101024.25;4884603;29;20238;-75
2023/03/20 04:07:03;;;;;;;9.23;8.20;;;;;;;10.09;97.22;101033.78;4884761;29;20196;-74
2023/03/20 04:09:32;;;;;;;8.20;7.28;;;;;;;10.09;97.45;101031.06;4884782;29;20685;-74
2023/03/20 04:12:01;;;;;;;9.95;8.95;;;;;;;10.07;97.74;101035.88;4890318;29;20216;-75
2023/03/20 04:14:32;;;;;;;9.13;8.23;;;;;;;10.10;97.61;101041.69;4903211;29;20279;-80
2023/03/20 04:17:01;;;;;;;14.90;8.85;;;;;;;10.01;97.82;101043.72;4885332;29;20228;-79
2023/03/20 04:19:33;;;;;;;11.18;9.55;;;;;;;9.96;98.16;101050.72;4884915;29;20301;-78
2023/03/20 04:22:02;;;;;;;9.00;8.20;;;;;;;10.00;98.83;101043.91;4884732;29;20672;-75
2023/03/20 04:24:31;;;;;;;10.02;8.95;;;;;;;9.95;98.60;101052.59;4884537;29;20211;-75
2023/03/20 04:27:01;;;;;;;11.38;8.40;;;;;;;10.04;98.41;101053.28;4886524;29;20252;-74
2023/03/20 04:29:31;;;;;;;13.98;8.15;;;;;;;10.02;98.43;101050.78;4884498;29;20311;-75
2023/03/20 04:32:18;;;;;;;10.32;9.10;;;;;;;10.03;98.46;101057.03;4884111;29;20231;-75
2023/03/20 04:35:09;;;;;;;13.27;9.45;;;;;;;10.01;99.17;101059.09;4878869;29;20699;-75
2023/03/20 04:38:05;;;;;;;9.65;8.55;;;;;;;10.00;98.79;101047.44;4892079;29;20237;-76
2023/03/20 04:40:35;;;;;;;12.63;9.57;;;;;;;10.00;98.97;101052.00;4910949;29;20204;-73
2023/03/20 04:43:05;;;;;;;9.38;8.38;;;;;;;10.02;99.64;101048.06;4899947;29;20199;-74
2023/03/20 04:45:36;;;;;;;10.77;9.68;;;;;;;9.95;99.84;101055.31;4884831;29;20247;-74
2023/03/20 04:48:09;;;;;;;15.30;10.38;;;;;;;9.91;100.00;101056.72;4888167;29;20227;-75
2023/03/20 04:50:38;;;;;;;10.73;9.63;;;;;;;9.99;99.57;101051.16;4883871;29;20204;-74
2023/03/20 04:53:07;;;;;;;10.30;9.02;;;;;;;10.08;99.84;101061.84;4887354;29;20306;-74
2023/03/20 04:55:36;;;;;;;12.73;8.65;;;;;;;10.11;99.14;101058.78;4885362;29;20213;-76
2023/03/20 04:58:06;;;;;;;14.43;10.65;;;;;;;10.10;99.25;101048.97;4892719;29;20320;-74
2023/03/20 05:00:36;;;;;;;11.18;9.98;;;;;;;10.07;99.90;101060.19;4889578;29;20201;-75
2023/03/20 05:03:11;;;;;;;15.35;10.00;;;;;;;10.03;100.00;101057.88;4894481;29;20211;-75
2023/03/20 05:05:41;;;;;;;13.10;10.55;;;;;;;10.22;100.00;101061.78;4884116;29;20313;-75
2023/03/20 05:08:10;;;;;;;14.35;10.93;;;;;;;10.25;99.28;101061.41;4900428;29;20231;-75
2023/03/20 05:10:40;;;;;;;10.88;9.73;;;;;;;10.23;99.72;101065.34;4883128;29;20209;-74
2023/03/20 05:13:32;;;;;;;12.82;10.88;;;;;;;10.31;99.26;101065.22;4896760;29;20212;-75
2023/03/20 05:16:38;;;;;;;23.33;10.90;;;;;;;10.33;99.05;101063.97;4845765;29;20211;-75
2023/03/20 05:19:36;;;;;;;13.40;9.10;;;;;;;10.29;99.35;101064.56;4878727;29;20217;-74
2023/03/20 05:22:21;;;;;;;10.40;9.38;;;;;;;10.31;98.97;101062.50;4892677;29;20287;-74
2023/03/20 05:25:04;;;;;;;13.97;10.47;;;;;;;10.27;99.59;101059.34;4888500;29;20694;-74
2023/03/20 05:27:54;;;;;;;18.50;12.13;;;;;;;10.25;100.00;101060.56;4875252;29;20821;-75
2023/03/20 05:30:52;;;;;;;10.82;9.52;;;;;;;10.31;99.73;101062.50;4887364;29;20290;-75
2023/03/20 05:33:37;;;;;;;13.70;11.13;;;;;;;10.32;99.84;101064.16;4896509;29;20219;-74
2023/03/20 05:36:13;;;;;;;15.55;10.45;;;;;;;10.24;100.00;101061.59;4889566;29;20885;-75
2023/03/20 05:38:58;;;;;;;18.88;11.52;;;;;;;10.25;100.00;101064.13;4888977;29;20717;-75
2023/03/20 05:41:46;;;;;;;12.60;11.30;;;;;;;10.32;100.00;101061.44;4888343;29;20240;-74
2023/03/20 05:44:33;;;;;;;15.93;10.68;;;;;;;10.28;100.00;101066.44;4905704;29;20483;-74
2023/03/20 05:47:31;;;;;;;16.00;12.30;;;;;;;10.31;100.00;101060.59;4853688;29;20724;-74
2023/03/20 05:50:35;;;;;;;13.85;12.35;;;;;;;10.44;99.76;101059.91;4895706;29;20216;-74
2023/03/20 05:53:09;;;;;;;14.40;11.88;;;;;;;10.38;100.00;101071.50;4905587;29;20283;-74
2023/03/20 05:55:44;;;;;;;16.95;12.45;;;;;;;10.27;100.00;101072.03;4907555;29;20200;-74
2023/03/20 05:58:32;;;;;;;18.88;13.38;;;;;;;10.17;100.00;101068.81;4908035;29;20234;-75
2023/03/20 06:01:01;;;;;;;15.10;11.35;;;;;;;10.15;100.00;101071.69;4907812;29;20244;-74
2023/03/20 06:03:50;;;;;;;16.40;12.73;;;;;;;10.16;100.00;101073.41;4880361;29;20202;-74
2023/03/20 06:07:06;;;;;;;21.05;15.30;;;;;;;10.23;100.00;101079.69;4893922;29;20206;-75
2023/03/20 06:09:36;;;;;;;21.17;12.80;;;;;;;10.26;100.00;101086.59;4890628;29;20209;-75
2023/03/20 06:12:11;;;;;;;18.67;12.80;;;;;;;10.17;100.00;101095.84;4884676;29;20223;-74
2023/03/20 06:14:41;;;;;;;25.40;14.77;;;;;;;10.23;100.00;101095.09;4885245;29;20629;-74
2023/03/20 06:17:10;;;;;;;15.88;13.43;;;;;;;10.02;100.00;101109.44;4887102;29;20460;-74
2023/03/20 06:19:39;;;;;;;18.08;14.43;;;;;;;9.87;100.00;101112.22;4895576;29;20195;-76
2023/03/20 06:22:10;;;;;;;20.13;15.48;;;;;;;9.78;100.00;101113.34;4907085;29;20224;-77
2023/03/20 06:24:39;;;;;;;19.95;14.90;;;;;;;9.86;100.00;101113.22;4890017;29;20196;-76
2023/03/20 06:27:09;;;;;;;20.50;15.25;;;;;;;9.43;100.00;101119.59;4903430;29;20275;-76
2023/03/20 06:29:39;;;;;;;21.05;16.67;;;;;;;9.26;100.00;101123.50;4894156;29;20304;-74
2023/03/20 06:32:16;;;;;;;24.95;16.27;;;;;;;9.19;100.00;101125.31;4888836;29;20222;-76
2023/03/20 06:34:48;;;;;;;25.85;18.73;;;;;;;9.20;100.00;101135.09;4891677;29;20219;-76
2023/03/20 06:37:20;;;;;;;25.88;20.00;;;;;;;9.27;100.00;101142.25;4894513;29;20267;-76
2023/03/20 06:39:50;;;;;;;28.40;21.10;;;;;;;9.14;100.00;101136.69;4886166;29;20645;-76
2023/03/20 06:42:19;;;;;;;31.27;20.70;;;;;;;9.18;100.00;101137.97;4882565;29;20745;-79
2023/03/20 06:44:49;;;;;;;29.88;20.13;;;;;;;9.21;100.00;101147.53;4881784;29;20191;-74
2023/03/20 06:47:53;;;;;;;36.40;23.73;;;;;;;9.35;100.00;101150.22;4891255;29;20596;-76
2023/03/20 06:50:23;;;;;;;42.38;25.00;;;;;;;9.22;100.00;101151.94;4890121;29;20242;-76
2023/03/20 06:52:54;;;;;;;37.80;23.10;;;;;;;9.43;100.00;101146.63;4882151;29;20214;-76
2023/03/20 06:55:50;;;;;;;33.05;22.00;;;;;;;9.26;100.00;101139.72;4882131;29;20214;-75
2023/03/20 06:58:21;;;;;;;34.88;21.58;;;;;;;9.45;100.00;101142.69;4888098;29;20238;-75
2023/03/20 07:00:53;;;;;;;39.25;23.83;;;;;;;9.56;100.00;101147.59;4881705;29;20202;-74
2023/03/20 07:03:22;;;;;;;31.55;21.27;;;;;;;9.45;100.00;101149.94;4879200;29;20564;-73
2023/03/20 07:05:52;;;;;;;43.72;24.00;;;;;;;9.42;100.00;101161.13;4878955;29;20256;-74
2023/03/20 07:08:24;;;;;;;41.00;23.95;;;;;;;9.56;100.00;101162.97;4881025;29;20227;-73
2023/03/20 07:10:53;;;;;;;49.13;27.02;;;;;;;9.18;100.00;101158.72;4885279;29;20209;-75
2023/03/20 07:13:22;;;;;;;37.85;21.83;;;;;;;9.27;100.00;101165.72;4882455;29;20221;-73
2023/03/20 07:15:52;;;;;;;33.80;25.08;;;;;;;9.38;100.00;101171.50;4895310;29;20195;-73
2023/03/20 07:18:37;;;;;;;45.05;24.90;;;;;;;9.32;100.00;101177.63;4895330;29;20319;-74
2023/03/20 07:21:07;;;;;;;39.47;24.45;;;;;;;9.12;100.00;101177.34;4884479;29;20243;-74
2023/03/20 07:23:39;;;;;;;42.83;25.63;;;;;;;9.03;100.00;101181.16;4886663;29;20199;-74
2023/03/20 07:26:08;;;;;;;36.13;22.75;;;;;;;9.21;100.00;101171.84;4881076;29;20207;-75
2023/03/20 07:28:37;;;;;;;33.53;23.48;;;;;;;9.40;100.00;101182.09;4894918;29;20231;-75
2023/03/20 07:31:20;;;;;;;37.65;23.20;;;;;;;9.53;100.00;101184.97;4899981;29;20258;-76
2023/03/20 07:33:54;;;;;;;42.25;23.25;;;;;;;9.33;100.00;101190.13;4893643;29;20215;-75
2023/03/20 07:36:24;;;;;;;41.97;23.63;;;;;;;9.27;100.00;101181.91;4884289;29;20282;-74
2023/03/20 07:38:56;;;;;;;40.35;22.10;;;;;;;9.26;100.00;101189.16;4884768;29;20220;-74
2023/03/20 07:41:31;;;;;;;33.28;20.08;;;;;;;9.16;100.00;101184.06;4899127;29;20205;-74
2023/03/20 07:44:09;;;;;;;38.67;20.65;;;;;;;9.18;100.00;101191.13;4887741;29;20212;-75
2023/03/20 07:47:07;;;;;;;40.15;23.83;;;;;;;9.01;100.00;101194.00;4888822;29;20211;-75
2023/03/20 07:49:37;;;;;;;35.85;21.17;;;;;;;9.01;100.00;101188.59;4880935;29;20344;-75
2023/03/20 07:52:09;;;;;;;33.30;20.92;;;;;;;9.06;100.00;101194.28;4896860;29;20203;-75
2023/03/20 07:54:39;;;;;;;36.45;22.13;;;;;;;9.26;100.00;101186.47;4882028;29;20217;-75
2023/03/20 07:57:08;;;;;;;44.28;23.48;;;;;;;9.29;100.00;101182.56;4902443;29;20251;-75
2023/03/20 07:59:38;;;;;;;41.72;22.75;;;;;;;9.36;100.00;101187.03;4882559;29;20760;-74
2023/03/20 08:02:07;;;;;;;38.88;21.52;;;;;;;9.63;100.00;101174.72;4898103;29;20210;-77
2023/03/20 08:04:37;;;;;;;39.83;22.73;;;;;;;9.91;100.00;101181.06;4881538;29;20295;-75
2023/03/20 08:07:06;;;;;;;36.70;19.83;;;;;;;10.00;98.59;101188.03;4880382;29;20212;-76
2023/03/20 08:09:35;;;;;;;36.63;20.10;;;;;;;10.06;98.80;101193.72;4880851;29;20202;-74
2023/03/20 08:12:06;;;;;;;35.35;21.30;;;;;;;9.91;98.32;101194.59;4867977;29;20250;-74
2023/03/20 08:14:37;;;;;;;32.08;21.48;;;;;;;10.11;98.35;101196.69;4891901;29;20726;-75
2023/03/20 08:17:06;;;;;;;33.15;18.70;;;;;;;10.08;98.03;101205.16;4890642;29;20301;-75
2023/03/20 08:19:44;;;;;;;39.13;20.17;;;;;;;9.87;98.46;101201.41;4881876;29;20203;-75
2023/03/20 08:22:14;;;;;;;37.05;18.30;;;;;;;10.07;97.70;101225.13;4912031;29;20198;-76
2023/03/20 08:24:43;;;;;;;39.67;23.70;;;;;;;9.89;97.89;101223.66;4890196;29;20195;-74
2023/03/20 08:27:13;;;;;;;37.63;20.00;;;;;;;9.87;98.52;101214.94;4891891;29;20243;-74
2023/03/20 08:29:42;;;;;;;39.05;20.98;;;;;;;9.91;98.74;101216.22;4886689;29;20247;-74
2023/03/20 08:32:11;;;;;;;28.90;17.80;;;;;;;10.07;97.01;101215.13;4887253;29;20681;-73
2023/03/20 08:34:41;;;;;;;31.65;17.67;;;;;;;10.20;95.19;101209.91;4902498;29;20216;-74
2023/03/20 08:37:11;;;;;;;31.75;19.52;;;;;;;10.33;93.87;101214.63;4903289;29;20188;-75
2023/03/20 08:39:40;;;;;;;31.88;17.40;;;;;;;10.51;92.02;101212.28;4895644;29;20204;-75
2023/03/20 08:42:09;;;;;;;31.90;17.33;;;;;;;10.72;91.55;101204.16;4880586;29;20302;-74
2023/03/20 08:44:40;;;;;;;33.40;18.00;;;;;;;11.24;88.24;101194.72;4890503;29;20492;-75
2023/03/20 08:47:10;;;;;;;29.25;18.23;;;;;;;11.34;86.06;101203.34;4890100;29;20469;-75
2023/03/20 08:49:40;;;;;;;33.97;17.70;;;;;;;11.38;84.57;101198.34;4893134;29;20731;-76
2023/03/20 08:52:09;;;;;;;30.07;18.00;;;;;;;11.90;83.26;101203.22;4885149;29;20478;-75
2023/03/20 08:54:38;;;;;;;28.83;14.80;;;;;;;12.14;80.35;101205.41;4883468;29;20559;-75
2023/03/20 08:57:07;;;;;;;28.63;15.87;;;;;;;12.13;78.89;101199.13;4883851;29;20530;-75
2023/03/20 09:03:27;;;;;;;25.63;15.87;;;;;;;12.45;77.36;101205.66;4881789;29;20425;-74
2023/03/20 09:05:56;;;;;;;26.87;16.63;;;;;;;12.39;77.17;101203.75;4883572;29;21022;-73
2023/03/20 09:08:25;;;;;;;23.13;15.00;;;;;;;12.17;76.97;101203.09;4894519;29;20469;-74
2023/03/20 09:10:59;;;;;;;25.10;15.87;;;;;;;12.05;78.40;101206.63;4888307;29;20793;-76
2023/03/20 09:13:29;;;;;;;35.90;17.30;;;;;;;12.65;77.35;101213.81;4899631;29;20435;-75
2023/03/20 09:15:58;;;;;;;24.27;16.37;;;;;;;12.67;75.44;101200.88;4893301;29;20452;-75
2023/03/20 09:18:29;;;;;;;22.30;15.00;;;;;;;13.01;73.64;101202.53;4900125;29;20623;-75
2023/03/20 09:24:42;;;;;;;27.80;13.87;;;;;;;13.37;71.43;101202.91;4891638;29;20412;-76
2023/03/20 09:27:12;;;;;;;23.53;14.17;;;;;;;13.10;72.45;101208.59;4885385;29;20503;-74
2023/03/20 09:29:42;;;;;;;28.17;16.67;;;;;;;12.73;72.61;101204.66;4893888;29;20451;-75
2023/03/20 09:32:13;;;;;;;23.47;12.90;;;;;;;12.75;72.97;101203.38;4900576;29;20477;-76
2023/03/20 09:34:54;;;;;;;21.03;13.33;;;;;;;12.96;72.35;101202.34;4883403;29;20487;-76
2023/03/20 09:37:24;;;;;;;20.57;14.03;;;;;;;12.29;72.97;101207.94;4888088;29;20482;-74
2023/03/20 09:39:53;;;;;;;23.10;14.30;;;;;;;12.32;74.33;101202.94;4883440;29;20430;-76
2023/03/20 09:42:56;;;;;;;22.80;14.20;;;;;;;12.46;73.57;101201.91;4883568;29;20535;-75
2023/03/20 09:45:42;;;;;;;23.20;13.23;;;;;;;12.33;73.96;101203.75;4889504;29;20520;-75
2023/03/20 09:48:19;;;;;;;16.93;10.93;;;;;;;12.44;73.49;101205.88;4888000;29;20456;-75
2023/03/20 09:50:58;;;;;;;16.50;10.10;;;;;;;12.34;72.67;101206.28;4892570;29;20518;-74
2023/03/20 09:53:33;;;;;;;18.67;10.13;;;;;;;12.56;72.42;101204.19;4885944;29;20985;-75
2023/03/20 09:56:23;;;;;;;15.50;10.30;;;;;;;12.58;71.24;101197.53;4882952;29;20434;-75
2023/03/20 09:58:56;;;;;;;15.70;11.73;;;;;;;12.27;71.61;101210.00;4883914;29;20488;-74
2023/03/20 10:01:30;;;;;;;18.37;11.13;;;;;;;12.37;71.71;101215.88;4884383;29;20486;-75
2023/03/20 10:04:01;;;;;;;14.97;9.77;;;;;;;12.18;72.18;101212.06;4899190;29;20409;-74
2023/03/20 10:06:33;;;;;;;14.13;8.97;;;;;;;12.30;71.95;101223.16;4896880;29;20443;-75
2023/03/20 10:09:12;;;;;;;16.90;10.13;;;;;;;12.46;71.08;101210.03;4894621;29;20513;-74
2023/03/20 10:12:08;;;;;;;14.70;9.77;;;;;;;12.58;70.30;101208.41;4876188;29;20483;-76
2023/03/20 10:14:49;;;;;;;12.90;8.37;;;;;;;12.36;70.18;101215.03;4883536;29;20484;-75
2023/03/20 10:17:31;;;;;;;15.60;9.60;;;;;;;12.54;70.07;101228.84;4889186;29;20477;-75
2023/03/20 10:20:12;;;;;;;16.77;9.67;;;;;;;12.41;69.81;101219.84;4880491;29;20975;-74
2023/03/20 10:22:52;;;;;;;14.70;8.10;;;;;;;12.33;70.51;101220.03;4898338;29;20417;-74
2023/03/20 10:25:28;;;;;;;20.20;9.33;;;;;;;12.31;71.01;101222.94;4884528;29;20455;-76
2023/03/20 10:28:03;;;;;;;15.30;8.97;;;;;;;11.94;71.31;101209.91;4899287;29;20435;-74
2023/03/20 10:30:47;;;;;;;15.00;10.10;;;;;;;11.79;73.22;101220.91;4894103;29;20448;-75
2023/03/20 10:33:53;;;;;;;11.40;8.07;;;;;;;11.94;72.61;101216.19;4884271;29;20467;-75
2023/03/20 10:36:51;;;;;;;16.07;7.63;;;;;;;11.89;72.89;101218.66;4897761;29;20664;-76
2023/03/20 10:39:35;;;;;;;15.57;10.17;;;;;;;12.06;72.64;101210.97;4892333;29;21065;-75
2023/03/20 10:42:13;;;;;;;15.87;8.90;;;;;;;12.11;71.94;101203.06;4882421;29;20423;-75
2023/03/20 10:44:48;;;;;;;15.50;8.43;;;;;;;12.23;71.22;101204.16;4900067;29;20463;-75
2023/03/20 10:47:22;;;;;;;16.40;9.20;;;;;;;12.33;70.92;101199.19;4886284;29;20450;-74
2023/03/20 10:50:03;;;;;;;12.60;8.80;;;;;;;12.47;70.45;101206.28;4889824;29;20547;-76
2023/03/20 10:52:35;;;;;;;14.87;8.20;;;;;;;12.37;69.71;101203.13;4883708;29;20796;-75
2023/03/20 10:55:11;;;;;;;13.33;8.03;;;;;;;12.53;69.43;101210.06;4881272;29;20533;-75
2023/03/20 10:57:46;;;;;;;11.53;6.87;;;;;;;12.54;69.76;101209.00;4904046;29;21219;-75
2023/03/20 11:00:20;;;;;;;9.87;7.40;;;;;;;12.73;68.81;101210.88;4888079;29;20848;-76
2023/03/20 11:02:49;;;;;;;11.50;8.00;;;;;;;12.91;68.56;101202.13;4873943;29;20441;-76
2023/03/20 11:05:25;;;;;;;15.43;8.90;;;;;;;12.83;68.41;101216.72;4888296;29;20482;-75
2023/03/20 11:08:03;;;;;;;13.50;7.10;;;;;;;12.69;68.50;101203.38;4902633;29;20462;-76
2023/03/20 11:10:38;;;;;;;11.00;6.57;;;;;;;12.51;68.12;101191.25;4886760;29;20458;-75
2023/03/20 11:13:18;;;;;;;11.90;7.00;;;;;;;12.73;67.99;101199.22;4890784;29;20796;-76
2023/03/20 11:15:47;;;;;;;12.77;9.10;;;;;;;13.19;67.09;101199.19;4887780;29;20870;-75
2023/03/20 11:18:17;;;;;;;13.93;8.00;;;;;;;13.10;66.46;101195.84;4888528;29;20465;-75
2023/03/20 11:20:49;;;;;;;13.50;6.77;;;;;;;13.04;66.78;101204.81;4887083;29;20481;-76
2023/03/20 11:23:20;;;;;;;10.20;7.93;;;;;;;12.71;67.28;101195.84;4890018;29;20436;-75
2023/03/20 11:25:57;;;;;;;12.07;7.50;;;;;;;12.69;67.32;101204.19;4891788;29;20425;-77
2023/03/20 11:28:32;;;;;;;8.57;5.80;;;;;;;12.47;68.17;101200.03;4890715;29;20448;-77
2023/03/20 11:31:06;;;;;;;12.80;7.83;;;;;;;12.56;68.17;101198.78;4908855;29;20484;-76
2023/03/20 11:33:39;;;;;;;18.33;7.20;;;;;;;12.29;69.04;101197.06;4907955;29;20681;-76
2023/03/20 11:36:19;;;;;;;18.63;9.40;;;;;;;12.18;69.62;101196.63;4891012;29;20848;-76
2023/03/20 11:38:49;;;;;;;14.40;8.37;;;;;;;12.10;70.51;101187.84;4910955;29;20469;-76
2023/03/20 11:41:24;;;;;;;15.33;8.03;;;;;;;12.58;69.42;101194.81;4889877;29;20424;-76
2023/03/20 11:43:54;;;;;;;13.13;8.10;;;;;;;12.84;69.31;101193.97;4883623;29;20436;-76
2023/03/20 11:46:27;;;;;;;11.90;7.27;;;;;;;12.91;68.34;101196.69;4890390;29;20443;-75
2023/03/20 11:49:16;;;;;;;10.43;6.40;;;;;;;12.82;68.18;101187.09;4890458;29;20514;-75
2023/03/20 11:51:45;;;;;;;9.83;7.40;;;;;;;12.89;67.96;101177.03;4890057;29;20535;-75
2023/03/20 11:54:19;;;;;;;16.50;8.43;;;;;;;12.98;67.81;101181.22;4895603;29;20431;-77
2023/03/20 11:56:57;;;;;;;12.00;6.23;;;;;;;12.98;67.50;101170.34;4897073;29;20533;-77
2023/03/20 11:59:31;;;;;;;9.07;7.10;;;;;;;13.02;67.30;101166.19;4912340;29;20431;-76
2023/03/20 12:02:03;;;;;;;19.37;8.33;;;;;;;12.97;66.76;101168.69;4905157;29;20466;-75
2023/03/20 12:04:36;;;;;;;11.97;8.17;;;;;;;12.67;67.61;101168.28;4888316;29;20428;-77
2023/03/20 12:07:12;;;;;;;12.60;8.27;;;;;;;12.70;68.22;101167.88;4883755;29;20465;-77